Time;durP1;ratioP1;P1;durP2;ratioP2;P2;SDS_P1;SDS_P2;PMS_P1;PMS_P2;Temp;Humidity;BMP_temperature;BMP_pressure;BME280_temperature;BME280_humidity;BME280_pressure;Samples;Min_cycle;Max_cycle;Signal;HPM_P1;HPM_P2
2023/01/01 00:00:11;;;;;;;28.63;17.67;;;14.00;99.90;;;;;;5085226;28;20040;-64
2023/01/01 00:02:36;;;;;;;30.45;15.63;;;13.90;99.90;;;;;;5085295;28;20113;-64
2023/01/01 00:05:03;;;;;;;29.48;16.30;;;14.00;99.90;;;;;;5056675;28;20041;-64
2023/01/01 00:07:29;;;;;;;29.67;16.60;;;14.00;99.90;;;;;;5047023;28;20397;-65
2023/01/01 00:12:38;;;;;;;30.52;16.77;;;13.90;99.90;;;;;;5084188;28;20051;-65
2023/01/01 00:15:04;;;;;;;25.73;17.13;;;13.70;99.90;;;;;;5084564;28;20037;-64
2023/01/01 00:17:30;;;;;;;31.60;15.95;;;13.60;99.90;;;;;;5066154;28;20047;-65
2023/01/01 00:19:56;;;;;;;23.52;15.30;;;13.70;99.90;;;;;;5066622;28;20072;-64
2023/01/01 00:22:21;;;;;;;26.85;15.88;;;13.60;99.90;;;;;;5071787;28;20045;-64
2023/01/01 00:24:48;;;;;;;31.92;16.17;;;13.60;99.90;;;;;;5084759;28;20532;-65
2023/01/01 00:27:14;;;;;;;26.52;16.75;;;13.60;99.90;;;;;;5084177;28;20086;-64
2023/01/01 00:29:39;;;;;;;27.00;17.17;;;13.60;99.90;;;;;;5084101;28;20036;-64
2023/01/01 00:32:05;;;;;;;32.75;17.80;;;13.60;99.90;;;;;;5084052;28;20048;-64
2023/01/01 00:34:30;;;;;;;30.58;17.30;;;13.50;99.90;;;;;;5084439;28;20051;-64
2023/01/01 00:36:56;;;;;;;28.60;15.65;;;13.40;99.90;;;;;;5087448;28;20036;-64
2023/01/01 00:39:22;;;;;;;26.92;16.90;;;13.50;99.90;;;;;;5088965;28;20036;-64
2023/01/01 00:41:48;;;;;;;24.92;15.68;;;13.30;99.90;;;;;;5070835;28;20049;-64
2023/01/01 00:44:13;;;;;;;25.38;15.55;;;13.30;99.90;;;;;;5087998;28;20084;-64
2023/01/01 00:46:39;;;;;;;28.10;15.13;;;13.40;99.90;;;;;;5087552;28;20123;-64
2023/01/01 00:49:04;;;;;;;28.95;16.38;;;13.30;99.90;;;;;;5088632;28;20040;-64
2023/01/01 00:51:30;;;;;;;31.15;16.38;;;13.50;99.90;;;;;;5088160;28;20033;-64
2023/01/01 00:53:56;;;;;;;26.17;14.95;;;13.40;99.90;;;;;;5087691;28;20110;-64
2023/01/01 00:56:21;;;;;;;28.20;16.77;;;13.50;99.90;;;;;;5088436;28;20072;-64
2023/01/01 00:58:47;;;;;;;24.25;16.63;;;13.50;99.90;;;;;;5088295;28;20089;-65
2023/01/01 01:01:13;;;;;;;28.77;15.95;;;13.60;99.90;;;;;;5098611;28;20047;-65
2023/01/01 01:03:39;;;;;;;27.38;16.52;;;13.60;99.90;;;;;;5088500;28;20062;-64
2023/01/01 01:06:04;;;;;;;22.02;15.00;;;13.70;99.90;;;;;;5088293;28;20040;-64
2023/01/01 01:08:33;;;;;;;26.02;15.63;;;13.60;99.90;;;;;;5087794;28;20045;-64
2023/01/01 01:11:10;;;;;;;22.60;13.80;;;13.70;99.90;;;;;;5087428;28;20040;-64
2023/01/01 01:13:37;;;;;;;23.83;14.82;;;13.60;99.90;;;;;;5088105;28;20447;-65
2023/01/01 01:16:18;;;;;;;25.48;14.63;;;13.70;99.90;;;;;;5088340;28;20041;-64
2023/01/01 01:18:45;;;;;;;20.77;15.38;;;13.70;99.90;;;;;;5087829;28;20408;-64
2023/01/01 01:21:15;;;;;;;23.63;16.50;;;13.80;99.90;;;;;;5087871;28;20036;-65
2023/01/01 01:23:41;;;;;;;24.33;16.38;;;13.90;99.90;;;;;;5087960;28;20125;-65
2023/01/01 01:26:18;;;;;;;30.05;18.80;;;13.90;99.90;;;;;;5088077;28;20051;-64
2023/01/01 01:28:45;;;;;;;24.05;15.35;;;13.80;99.90;;;;;;5087750;28;20096;-64
2023/01/01 01:31:11;;;;;;;27.63;15.98;;;13.90;99.90;;;;;;5069857;28;20056;-64
2023/01/01 01:33:37;;;;;;;26.60;14.40;;;13.90;99.90;;;;;;5087489;28;20037;-64
2023/01/01 01:36:04;;;;;;;22.42;15.95;;;13.80;99.90;;;;;;5087972;28;20123;-64
2023/01/01 01:38:30;;;;;;;23.95;15.00;;;13.80;99.90;;;;;;5092277;28;20047;-64
2023/01/01 01:40:56;;;;;;;24.48;14.93;;;13.90;99.90;;;;;;5090597;28;20036;-65
2023/01/01 01:43:31;;;;;;;27.40;15.55;;;14.00;99.90;;;;;;5087702;28;20044;-64
2023/01/01 01:46:05;;;;;;;29.85;16.27;;;14.10;99.90;;;;;;5068906;28;20060;-64
2023/01/01 01:48:41;;;;;;;26.13;15.35;;;14.00;99.90;;;;;;5086655;28;20037;-64
2023/01/01 01:51:07;;;;;;;23.85;15.35;;;13.90;99.90;;;;;;5082635;28;20087;-64
2023/01/01 01:53:36;;;;;;;22.52;15.48;;;13.80;99.90;;;;;;5087557;28;20045;-64
2023/01/01 01:56:08;;;;;;;23.13;15.23;;;13.80;99.90;;;;;;5086905;28;20047;-64
2023/01/01 01:58:34;;;;;;;23.50;15.05;;;13.90;99.90;;;;;;5087358;28;20123;-64
2023/01/01 02:01:00;;;;;;;26.63;15.25;;;13.80;99.90;;;;;;5087388;28;20065;-65
2023/01/01 02:03:39;;;;;;;25.70;15.20;;;13.70;99.90;;;;;;5087120;28;20088;-64
2023/01/01 02:06:05;;;;;;;23.38;15.68;;;13.70;99.90;;;;;;5069788;28;20090;-64
2023/01/01 02:08:33;;;;;;;28.77;16.73;;;13.70;99.90;;;;;;5069111;28;20052;-64
2023/01/01 02:10:58;;;;;;;24.88;15.80;;;13.70;99.90;;;;;;5086734;28;20044;-65
2023/01/01 02:13:24;;;;;;;26.75;17.23;;;13.80;99.90;;;;;;5086810;28;20085;-64
2023/01/01 02:15:53;;;;;;;29.60;15.73;;;13.60;99.90;;;;;;5069167;28;20037;-64
2023/01/01 02:18:31;;;;;;;27.52;16.83;;;13.60;99.90;;;;;;5079926;28;20063;-64
2023/01/01 02:21:01;;;;;;;26.33;16.17;;;13.80;99.90;;;;;;5087063;28;20044;-64
2023/01/01 02:23:56;;;;;;;26.87;16.00;;;13.70;99.90;;;;;;5086539;28;20040;-65
2023/01/01 02:26:24;;;;;;;23.45;16.70;;;13.70;99.90;;;;;;5087037;28;20358;-64
2023/01/01 02:29:13;;;;;;;27.60;16.75;;;13.60;99.90;;;;;;5086865;28;20076;-64
2023/01/01 02:31:47;;;;;;;29.00;17.38;;;13.70;99.90;;;;;;5068486;28;20049;-64
2023/01/01 02:34:18;;;;;;;24.75;16.85;;;13.60;99.90;;;;;;5086835;28;20037;-64
2023/01/01 02:36:49;;;;;;;25.77;17.48;;;13.70;99.90;;;;;;5086629;28;20094;-64
2023/01/01 02:39:18;;;;;;;27.17;16.65;;;13.60;99.90;;;;;;5068492;28;20069;-64
2023/01/01 02:41:47;;;;;;;27.75;17.92;;;13.60;99.90;;;;;;5086232;28;20228;-64
2023/01/01 02:44:14;;;;;;;29.00;15.20;;;13.60;99.90;;;;;;5068337;28;20040;-64
2023/01/01 02:46:39;;;;;;;26.75;15.43;;;13.80;99.90;;;;;;5085997;28;20040;-64
2023/01/01 02:49:05;;;;;;;26.08;14.82;;;13.80;99.90;;;;;;5055698;28;20091;-64
2023/01/01 02:52:04;;;;;;;24.50;14.40;;;13.90;99.90;;;;;;5085673;28;20036;-64
2023/01/01 02:54:41;;;;;;;23.50;14.52;;;13.80;99.90;;;;;;5068269;28;20495;-64
2023/01/01 02:57:35;;;;;;;24.17;12.20;;;13.80;99.90;;;;;;5051860;28;20048;-63
2023/01/01 03:00:30;;;;;;;22.95;13.48;;;13.80;99.90;;;;;;5079072;28;20486;-64
2023/01/01 03:03:28;;;;;;;24.90;13.57;;;13.70;99.90;;;;;;5067051;28;20049;-64
2023/01/01 03:06:21;;;;;;;20.40;12.20;;;13.70;99.90;;;;;;5081958;28;20049;-64
2023/01/01 03:09:07;;;;;;;20.80;11.68;;;13.70;99.90;;;;;;5085169;28;20051;-64
2023/01/01 03:11:54;;;;;;;22.50;11.65;;;13.70;99.90;;;;;;5051337;28;20040;-65
2023/01/01 03:14:38;;;;;;;18.30;10.43;;;13.80;99.90;;;;;;5085955;28;20059;-64
2023/01/01 03:17:20;;;;;;;20.90;11.43;;;13.80;99.90;;;;;;5085040;28;20036;-64
2023/01/01 03:19:48;;;;;;;19.98;10.70;;;14.00;99.90;;;;;;5066876;28;20087;-64
2023/01/01 03:22:16;;;;;;;17.02;9.90;;;14.00;99.90;;;;;;5067388;28;20616;-64
2023/01/01 03:24:50;;;;;;;18.38;9.57;;;13.90;99.90;;;;;;5085880;28;20068;-64
2023/01/01 03:27:45;;;;;;;19.85;8.65;;;14.00;99.90;;;;;;5085565;28;20053;-64
2023/01/01 03:30:12;;;;;;;12.23;6.65;;;14.10;99.90;;;;;;5085254;28;20055;-65
2023/01/01 03:33:06;;;;;;;16.42;7.07;;;14.20;99.90;;;;;;5067726;28;20052;-64
2023/01/01 03:35:38;;;;;;;14.50;6.78;;;14.20;99.90;;;;;;5064314;28;20040;-64
2023/01/01 03:38:09;;;;;;;14.82;6.32;;;14.20;99.90;;;;;;5088000;28;20051;-64
2023/01/01 03:40:38;;;;;;;13.73;6.35;;;14.30;99.90;;;;;;5085350;28;20049;-64
2023/01/01 03:43:28;;;;;;;17.27;6.05;;;14.20;99.90;;;;;;5066663;28;20124;-65
2023/01/01 03:45:54;;;;;;;10.95;5.45;;;14.40;99.90;;;;;;5078873;28;20102;-65
2023/01/01 03:48:20;;;;;;;10.00;5.05;;;14.40;99.90;;;;;;5085461;28;20037;-64
2023/01/01 03:51:10;;;;;;;15.82;5.45;;;14.40;99.90;;;;;;5085405;28;20036;-64
2023/01/01 03:53:40;;;;;;;11.20;4.50;;;14.40;99.90;;;;;;5085567;28;20050;-64
2023/01/01 03:56:15;;;;;;;;;;;14.40;99.90;;;;;;5085895;28;20141;-64
2023/01/01 03:58:48;;;;;;;13.00;5.00;;;14.40;99.90;;;;;;5085204;28;19924;-64
2023/01/01 04:01:25;;;;;;;11.80;4.65;;;14.40;99.90;;;;;;5067147;28;20052;-64
2023/01/01 04:03:51;;;;;;;11.27;3.97;;;14.30;99.90;;;;;;5085280;28;20048;-65
2023/01/01 04:06:17;;;;;;;10.45;4.00;;;14.40;99.90;;;;;;5072191;28;20072;-65
2023/01/01 04:08:45;;;;;;;8.60;2.85;;;14.60;99.90;;;;;;5085505;28;20427;-65
2023/01/01 04:14:02;;;;;;;8.93;3.38;;;14.60;99.90;;;;;;5091804;28;20048;-65
2023/01/01 04:16:28;;;;;;;12.98;3.72;;;14.50;99.90;;;;;;5081781;28;20122;-65
2023/01/01 04:18:53;;;;;;;12.85;3.67;;;14.50;99.90;;;;;;5068674;28;22109;-65
2023/01/01 04:21:19;;;;;;;10.77;3.58;;;14.50;99.90;;;;;;5074831;28;22423;-65
2023/01/01 04:23:44;;;;;;;9.80;3.78;;;14.60;99.90;;;;;;5089092;28;20037;-65
2023/01/01 04:26:13;;;;;;;8.35;3.78;;;14.50;99.90;;;;;;5088579;28;20106;-65
2023/01/01 04:28:39;;;;;;;11.50;4.35;;;14.50;99.90;;;;;;5088509;28;20096;-64
2023/01/01 04:31:05;;;;;;;7.80;3.30;;;14.60;99.90;;;;;;5088236;28;20087;-64
2023/01/01 04:33:31;;;;;;;12.85;3.50;;;14.60;99.90;;;;;;5089002;28;20096;-65
2023/01/01 04:36:03;;;;;;;10.70;3.67;;;14.60;99.90;;;;;;5071103;28;20131;-64
2023/01/01 04:38:28;;;;;;;9.30;3.30;;;14.60;99.90;;;;;;5088764;28;20056;-64
2023/01/01 04:40:58;;;;;;;11.00;3.50;;;14.50;99.90;;;;;;5070679;28;20074;-64
2023/01/01 04:43:24;;;;;;;12.75;3.30;;;14.60;99.90;;;;;;5087980;28;20066;-65
2023/01/01 04:45:57;;;;;;;7.55;3.67;;;14.50;99.90;;;;;;5087602;28;20040;-64
2023/01/01 04:48:23;;;;;;;11.98;3.50;;;14.50;99.90;;;;;;5071181;28;20041;-64
2023/01/01 04:51:02;;;;;;;9.05;3.28;;;14.20;99.90;;;;;;5087623;28;20048;-64
2023/01/01 04:53:30;;;;;;;8.88;3.15;;;14.30;99.90;;;;;;5077587;28;20055;-64
2023/01/01 04:56:03;;;;;;;10.40;3.40;;;14.10;99.90;;;;;;5072778;28;20029;-64
2023/01/01 04:58:28;;;;;;;9.27;2.90;;;13.90;99.90;;;;;;5088763;28;20079;-64
2023/01/01 05:00:54;;;;;;;10.88;2.80;;;13.70;99.90;;;;;;5070308;28;20044;-64
2023/01/01 05:03:20;;;;;;;10.10;2.80;;;13.70;99.90;;;;;;5088429;28;20059;-64
2023/01/01 05:05:47;;;;;;;12.60;3.30;;;13.80;99.90;;;;;;5088376;28;20377;-64
2023/01/01 05:08:13;;;;;;;7.28;2.85;;;13.90;99.90;;;;;;5088496;28;20045;-64
2023/01/01 05:10:38;;;;;;;8.15;3.10;;;13.80;99.90;;;;;;5087687;28;20032;-64
2023/01/01 05:13:08;;;;;;;7.18;2.85;;;13.90;99.90;;;;;;5088516;28;20044;-64
2023/01/01 05:15:36;;;;;;;8.43;3.75;;;14.10;99.90;;;;;;5088156;28;20256;-64
2023/01/01 05:18:02;;;;;;;11.32;2.80;;;14.10;99.90;;;;;;5088217;28;20070;-64
2023/01/01 05:20:28;;;;;;;8.90;2.83;;;14.20;99.90;;;;;;5087717;28;20325;-64
2023/01/01 05:22:53;;;;;;;9.80;2.53;;;14.10;99.90;;;;;;5086979;28;20041;-64
2023/01/01 05:25:19;;;;;;;8.55;2.55;;;14.10;99.90;;;;;;5087275;28;20043;-65
2023/01/01 05:27:45;;;;;;;7.25;2.28;;;14.20;99.90;;;;;;5087337;28;20040;-65
2023/01/01 05:30:10;;;;;;;7.90;1.95;;;14.10;99.90;;;;;;5087070;28;20044;-65
2023/01/01 05:32:36;;;;;;;8.40;2.67;;;14.30;99.90;;;;;;5078445;28;20059;-65
2023/01/01 05:35:02;;;;;;;9.43;2.35;;;14.20;99.90;;;;;;5091220;28;20111;-65
2023/01/01 05:37:28;;;;;;;7.93;2.47;;;14.20;99.90;;;;;;5087885;28;20574;-64
2023/01/01 05:39:54;;;;;;;9.48;2.17;;;14.20;99.90;;;;;;5087197;28;20039;-64
2023/01/01 05:42:19;;;;;;;7.90;2.15;;;14.10;99.90;;;;;;5069423;28;20100;-64
2023/01/01 05:44:45;;;;;;;6.50;2.55;;;14.10;99.90;;;;;;5087269;28;20042;-64
2023/01/01 05:47:11;;;;;;;8.07;2.22;;;14.00;99.90;;;;;;5087417;28;20044;-64
2023/01/01 05:49:36;;;;;;;6.70;2.78;;;14.00;99.90;;;;;;5087512;28;20048;-64
2023/01/01 05:52:02;;;;;;;3.60;2.42;;;13.90;99.90;;;;;;5087244;28;20040;-64
2023/01/01 05:54:28;;;;;;;8.00;2.40;;;13.90;99.90;;;;;;5087033;28;20119;-64
2023/01/01 05:56:53;;;;;;;6.22;2.35;;;14.00;99.90;;;;;;5087556;28;20040;-64
2023/01/01 05:59:19;;;;;;;5.80;1.80;;;14.00;99.90;;;;;;5087485;28;20047;-65
2023/01/01 06:01:45;;;;;;;6.38;2.47;;;13.90;99.90;;;;;;5087089;28;20047;-65
2023/01/01 06:04:10;;;;;;;6.80;1.90;;;14.00;99.90;;;;;;5087224;28;20044;-65
2023/01/01 06:06:36;;;;;;;5.78;2.13;;;13.90;99.90;;;;;;5069141;28;20043;-65
2023/01/01 06:09:03;;;;;;;6.13;1.95;;;13.80;99.90;;;;;;5087307;28;20040;-65
2023/01/01 06:11:30;;;;;;;8.77;1.80;;;13.80;99.90;;;;;;5090076;28;20055;-65
2023/01/01 06:13:57;;;;;;;5.72;1.88;;;13.80;99.90;;;;;;5069395;28;20043;-65
2023/01/01 06:16:23;;;;;;;6.40;2.10;;;13.70;99.90;;;;;;5087064;28;20036;-65
2023/01/01 06:18:49;;;;;;;4.13;1.58;;;13.60;99.90;;;;;;5087090;28;20045;-65
2023/01/01 06:21:18;;;;;;;5.85;2.30;;;13.80;99.90;;;;;;5068131;28;20075;-65
2023/01/01 06:23:44;;;;;;;6.75;1.77;;;13.70;99.90;;;;;;5086240;28;20651;-65
2023/01/01 06:26:15;;;;;;;6.07;2.13;;;13.80;99.90;;;;;;5076845;28;20044;-65
2023/01/01 06:28:42;;;;;;;5.55;1.80;;;13.60;99.90;;;;;;5069066;28;20075;-64
2023/01/01 06:31:09;;;;;;;5.88;1.50;;;13.60;99.90;;;;;;5086370;28;20052;-64
2023/01/01 06:33:35;;;;;;;4.57;1.70;;;13.60;99.90;;;;;;5086116;28;20467;-64
2023/01/01 06:36:03;;;;;;;8.30;1.60;;;13.70;99.90;;;;;;5068639;28;20048;-64
2023/01/01 06:38:40;;;;;;;7.90;1.60;;;13.70;99.90;;;;;;5067961;28;20036;-64
2023/01/01 06:41:16;;;;;;;4.28;1.45;;;13.50;99.90;;;;;;5086166;28;20567;-64
2023/01/01 06:43:42;;;;;;;5.35;1.50;;;13.50;99.90;;;;;;5068214;28;20047;-64
2023/01/01 06:46:21;;;;;;;5.72;2.00;;;13.50;99.90;;;;;;5086418;28;20047;-64
2023/01/01 06:48:49;;;;;;;6.47;1.73;;;13.40;99.90;;;;;;5090147;28;20071;-64
2023/01/01 06:51:20;;;;;;;6.05;1.58;;;13.20;99.90;;;;;;5085547;28;20040;-64
2023/01/01 06:53:47;;;;;;;3.75;1.73;;;13.20;99.90;;;;;;5067372;28;20051;-64
2023/01/01 06:56:13;;;;;;;9.25;2.47;;;13.40;99.90;;;;;;5086199;28;20093;-64
2023/01/01 06:58:39;;;;;;;5.40;2.03;;;13.40;99.90;;;;;;5086341;28;20036;-64
2023/01/01 07:01:08;;;;;;;7.03;1.92;;;13.20;99.90;;;;;;5086009;28;20040;-64
2023/01/01 07:03:34;;;;;;;5.63;2.08;;;13.30;99.90;;;;;;5085196;28;20062;-64
2023/01/01 07:06:00;;;;;;;7.13;1.85;;;13.20;99.90;;;;;;5085424;28;20108;-64
2023/01/01 07:08:26;;;;;;;7.65;2.00;;;13.20;99.90;;;;;;5085823;28;20055;-64
2023/01/01 07:10:51;;;;;;;6.88;2.40;;;13.30;99.90;;;;;;5085826;28;20045;-64
2023/01/01 07:13:17;;;;;;;8.43;3.20;;;13.30;99.90;;;;;;5085770;28;20036;-64
2023/01/01 07:15:43;;;;;;;9.77;2.05;;;13.20;99.90;;;;;;5086145;28;20095;-64
2023/01/01 07:18:09;;;;;;;6.93;1.70;;;13.20;99.90;;;;;;5085773;28;20044;-64
2023/01/01 07:20:37;;;;;;;6.95;1.83;;;13.20;99.90;;;;;;5085947;28;20032;-64
2023/01/01 07:23:03;;;;;;;6.70;1.90;;;13.30;99.90;;;;;;5082760;28;20051;-64
2023/01/01 07:25:29;;;;;;;7.68;2.10;;;13.20;99.90;;;;;;5085743;28;20128;-64
2023/01/01 07:27:54;;;;;;;7.75;1.70;;;13.00;99.90;;;;;;5094281;28;20044;-65
2023/01/01 07:30:20;;;;;;;8.50;2.08;;;13.10;99.90;;;;;;5067654;28;20063;-65
2023/01/01 07:32:46;;;;;;;8.15;1.88;;;13.10;99.90;;;;;;5085452;28;20400;-65
2023/01/01 07:35:11;;;;;;;8.23;2.00;;;13.00;99.90;;;;;;5085274;28;20075;-65
2023/01/01 07:37:37;;;;;;;6.72;2.10;;;12.90;99.90;;;;;;5085379;28;20036;-64
2023/01/01 07:40:03;;;;;;;7.72;2.50;;;13.00;99.90;;;;;;5085602;28;20040;-64
2023/01/01 07:42:29;;;;;;;8.60;2.20;;;12.90;99.90;;;;;;5084569;28;20052;-65
2023/01/01 07:44:54;;;;;;;6.57;1.70;;;13.00;99.90;;;;;;5084569;28;20045;-65
2023/01/01 07:47:23;;;;;;;8.90;1.90;;;12.90;99.90;;;;;;5084558;28;20495;-65
2023/01/01 07:49:49;;;;;;;7.13;2.00;;;12.80;99.90;;;;;;5085488;28;20052;-65
2023/01/01 07:52:15;;;;;;;8.20;2.38;;;13.00;99.90;;;;;;5067464;28;20059;-65
2023/01/01 07:54:41;;;;;;;7.13;2.10;;;12.90;99.90;;;;;;5085250;28;20504;-65
2023/01/01 07:57:07;;;;;;;11.63;2.72;;;12.80;99.90;;;;;;5084907;28;20116;-65
2023/01/01 07:59:32;;;;;;;9.40;2.22;;;12.90;99.90;;;;;;5067517;28;20048;-65
2023/01/01 08:01:58;;;;;;;11.25;2.50;;;12.80;99.90;;;;;;5085132;28;20048;-65
2023/01/01 08:04:25;;;;;;;7.25;1.98;;;13.00;99.90;;;;;;5084837;28;20036;-64
2023/01/01 08:06:52;;;;;;;8.32;1.65;;;12.90;99.90;;;;;;5076579;28;20045;-64
2023/01/01 08:09:17;;;;;;;9.43;2.60;;;12.90;99.90;;;;;;5067333;28;20568;-64
2023/01/01 08:11:43;;;;;;;6.97;2.22;;;12.90;99.90;;;;;;5085365;28;20063;-64
2023/01/01 08:14:09;;;;;;;8.68;2.30;;;12.80;99.90;;;;;;5067447;28;20399;-64
2023/01/01 08:16:34;;;;;;;11.93;2.03;;;12.70;99.90;;;;;;5084125;28;20056;-64
2023/01/01 08:19:00;;;;;;;12.57;2.72;;;12.80;99.90;;;;;;5085025;28;20060;-64
2023/01/01 08:21:25;;;;;;;10.52;2.28;;;12.90;99.90;;;;;;5084840;28;20049;-64
2023/01/01 08:23:51;;;;;;;8.40;2.35;;;12.80;99.90;;;;;;5085142;28;20048;-64
2023/01/01 08:26:25;;;;;;;6.13;1.90;;;12.70;99.90;;;;;;5084938;28;20044;-64
2023/01/01 08:28:51;;;;;;;13.13;2.10;;;12.70;99.90;;;;;;5084468;28;20051;-65
2023/01/01 08:31:16;;;;;;;5.97;1.75;;;12.90;99.90;;;;;;5083732;28;20044;-64
2023/01/01 08:33:42;;;;;;;12.07;2.50;;;12.70;99.90;;;;;;5066219;28;20049;-64
2023/01/01 08:36:11;;;;;;;10.05;2.22;;;12.70;99.90;;;;;;5084018;28;20048;-64
2023/01/01 08:38:36;;;;;;;12.43;2.15;;;12.70;99.90;;;;;;5060213;28;20116;-64
2023/01/01 08:41:02;;;;;;;8.48;1.85;;;12.60;99.90;;;;;;5080444;28;20412;-64
2023/01/01 08:43:28;;;;;;;6.70;1.83;;;12.60;99.90;;;;;;5086182;28;20044;-64
2023/01/01 08:45:53;;;;;;;13.00;2.20;;;12.60;99.90;;;;;;5084485;28;20091;-64
2023/01/01 08:48:19;;;;;;;10.85;2.15;;;12.70;99.90;;;;;;5084800;28;20508;-65
2023/01/01 08:50:54;;;;;;;11.35;2.50;;;12.50;99.90;;;;;;5084298;28;20040;-64
2023/01/01 08:53:20;;;;;;;9.65;2.00;;;12.60;99.90;;;;;;5084483;28;20041;-65
2023/01/01 08:56:01;;;;;;;8.82;1.90;;;12.50;99.90;;;;;;5084813;28;20107;-65
2023/01/01 08:58:26;;;;;;;;;;;12.60;99.90;;;;;;5079411;28;20041;-65
2023/01/01 09:00:53;;;;;;;7.63;2.25;;;12.50;99.90;;;;;;5088465;28;19942;-65
2023/01/01 09:03:19;;;;;;;8.73;2.50;;;12.60;99.90;;;;;;5088349;28;20041;-65
2023/01/01 09:05:44;;;;;;;7.45;1.77;;;12.50;99.90;;;;;;5087664;28;20040;-65
2023/01/01 09:08:11;;;;;;;11.57;2.58;;;12.50;99.90;;;;;;5069812;28;20044;-65
2023/01/01 09:10:37;;;;;;;9.45;2.25;;;12.50;99.90;;;;;;5087557;28;20077;-64
2023/01/01 09:13:03;;;;;;;11.27;2.45;;;12.60;99.90;;;;;;5088495;28;20048;-64
2023/01/01 09:15:29;;;;;;;10.73;2.30;;;12.70;99.90;;;;;;5088054;28;20044;-64
2023/01/01 09:17:54;;;;;;;10.55;2.08;;;12.50;99.90;;;;;;5088305;28;20040;-64
2023/01/01 09:20:20;;;;;;;10.93;2.08;;;12.50;99.90;;;;;;5089000;28;20040;-65
2023/01/01 09:22:45;;;;;;;11.52;2.88;;;12.40;99.90;;;;;;5087950;28;20484;-65
2023/01/01 09:25:11;;;;;;;9.75;2.20;;;12.50;99.90;;;;;;5087856;28;20076;-64
2023/01/01 09:27:37;;;;;;;12.60;2.85;;;12.40;99.90;;;;;;5087994;28;20032;-65
2023/01/01 09:30:03;;;;;;;14.40;2.67;;;12.40;99.90;;;;;;5087117;28;20129;-65
2023/01/01 09:32:29;;;;;;;10.80;2.00;;;12.40;99.90;;;;;;5059356;28;20052;-64
2023/01/01 09:34:56;;;;;;;12.25;2.47;;;12.60;99.90;;;;;;5069751;28;20044;-65
2023/01/01 09:37:22;;;;;;;12.52;2.30;;;12.60;99.90;;;;;;5087712;28;20067;-65
2023/01/01 09:39:48;;;;;;;12.55;2.28;;;12.60;99.90;;;;;;5087645;28;20048;-65
2023/01/01 09:42:19;;;;;;;12.77;2.53;;;12.50;99.90;;;;;;5087349;28;20052;-64
2023/01/01 09:45:27;;;;;;;11.60;3.17;;;12.60;99.90;;;;;;5087486;28;20127;-65
2023/01/01 09:48:01;;;;;;;11.75;2.28;;;12.60;99.90;;;;;;5074492;28;20070;-65
2023/01/01 09:50:35;;;;;;;12.45;3.28;;;12.50;99.90;;;;;;5075781;28;20064;-64
2023/01/01 09:53:08;;;;;;;11.38;2.28;;;12.50;99.90;;;;;;5087111;28;20040;-65
2023/01/01 09:55:56;;;;;;;12.10;2.30;;;12.30;99.90;;;;;;5087552;28;20108;-65
2023/01/01 09:58:25;;;;;;;9.98;2.30;;;12.40;99.90;;;;;;5091743;28;20040;-65
2023/01/01 10:00:54;;;;;;;16.67;2.50;;;12.40;99.90;;;;;;5075937;28;20063;-65
2023/01/01 10:03:19;;;;;;;15.32;3.55;;;12.50;99.90;;;;;;5087566;28;20285;-65
2023/01/01 10:06:27;;;;;;;11.63;2.22;;;12.30;99.90;;;;;;5087284;28;20072;-65
2023/01/01 10:09:13;;;;;;;11.77;2.67;;;12.30;99.90;;;;;;5016770;28;20129;-65
2023/01/01 10:11:54;;;;;;;12.13;2.30;;;12.50;99.90;;;;;;5005269;28;20061;-65
2023/01/01 10:14:29;;;;;;;11.15;2.25;;;12.50;99.90;;;;;;5011433;28;20453;-65
2023/01/01 10:16:58;;;;;;;12.00;2.10;;;12.40;99.90;;;;;;5013404;28;20058;-65
2023/01/01 10:19:48;;;;;;;9.70;2.28;;;12.40;99.90;;;;;;5009586;28;20513;-64
2023/01/01 10:22:22;;;;;;;10.68;2.33;;;12.40;99.90;;;;;;5008100;28;20104;-65
2023/01/01 10:24:58;;;;;;;10.35;2.70;;;12.30;99.90;;;;;;5024826;28;20050;-64
2023/01/01 10:27:37;;;;;;;11.98;2.00;;;12.30;99.90;;;;;;5024632;28;20053;-65
2023/01/01 10:30:16;;;;;;;12.57;2.70;;;12.30;99.90;;;;;;5024818;28;20050;-64
2023/01/01 10:32:44;;;;;;;11.45;2.92;;;12.20;99.90;;;;;;5018487;28;20050;-64
2023/01/01 10:35:17;;;;;;;10.25;2.50;;;12.20;99.90;;;;;;4988414;28;20070;-64
2023/01/01 10:37:43;;;;;;;12.02;2.70;;;12.10;99.90;;;;;;5020808;28;20052;-64
2023/01/01 10:40:23;;;;;;;6.70;1.67;;;12.40;99.90;;;;;;5004410;28;20057;-64
2023/01/01 10:42:50;;;;;;;;;;;12.50;99.90;;;;;;5054757;28;20130;-64
2023/01/01 10:45:19;;;;;;;17.27;2.60;;;12.40;99.90;;;;;;5068658;28;19928;-64
2023/01/01 10:48:20;;;;;;;13.07;2.13;;;12.50;99.90;;;;;;5076881;28;20182;-64
2023/01/01 10:50:54;;;;;;;17.33;3.60;;;12.50;99.90;;;;;;5073905;28;20045;-64
2023/01/01 10:53:34;;;;;;;12.35;2.10;;;12.50;99.90;;;;;;5086413;28;20045;-64
2023/01/01 10:56:18;;;;;;;12.13;1.75;;;12.60;99.90;;;;;;5076730;28;20041;-64
2023/01/01 10:58:53;;;;;;;10.25;1.98;;;12.60;99.90;;;;;;5066504;28;20580;-64
2023/01/01 11:01:23;;;;;;;9.07;2.20;;;12.70;99.90;;;;;;5079464;28;20052;-64
2023/01/01 11:03:59;;;;;;;11.93;2.17;;;12.80;99.90;;;;;;5070304;28;20040;-64
2023/01/01 11:06:41;;;;;;;12.98;2.25;;;12.80;99.90;;;;;;5085099;28;20504;-64
2023/01/01 11:09:26;;;;;;;13.30;3.25;;;12.80;99.90;;;;;;5075738;28;20500;-64
2023/01/01 11:11:59;;;;;;;12.48;2.50;;;12.70;99.90;;;;;;5040399;28;20060;-64
2023/01/01 11:14:27;;;;;;;8.63;1.83;;;12.80;99.90;;;;;;5088836;28;20052;-64
2023/01/01 11:16:54;;;;;;;10.15;1.95;;;12.80;99.90;;;;;;5085688;28;20044;-64
2023/01/01 11:19:25;;;;;;;12.13;3.03;;;12.80;99.90;;;;;;5085329;28;20032;-64
2023/01/01 11:21:50;;;;;;;14.05;2.97;;;12.70;99.90;;;;;;5084815;28;20055;-64
2023/01/01 11:24:22;;;;;;;16.15;2.38;;;12.70;99.90;;;;;;5085821;28;20037;-64
2023/01/01 11:26:49;;;;;;;10.68;2.63;;;12.70;99.90;;;;;;5067738;28;20515;-64
2023/01/01 11:29:15;;;;;;;9.00;2.58;;;12.80;99.90;;;;;;5085256;28;20120;-64
2023/01/01 11:31:43;;;;;;;11.60;2.08;;;12.60;99.90;;;;;;5084609;28;20464;-64
2023/01/01 11:34:29;;;;;;;9.68;2.22;;;12.70;99.90;;;;;;5085382;28;20041;-64
2023/01/01 11:37:13;;;;;;;13.73;2.40;;;12.80;99.90;;;;;;5075360;28;20100;-64
2023/01/01 11:39:44;;;;;;;15.60;3.10;;;12.70;99.90;;;;;;5085167;28;20044;-64
2023/01/01 11:42:18;;;;;;;13.82;2.72;;;12.60;99.90;;;;;;5085609;28;20048;-64
2023/01/01 11:44:47;;;;;;;12.55;2.47;;;12.70;99.90;;;;;;5067408;28;20123;-66
2023/01/01 11:47:34;;;;;;;8.88;1.90;;;12.70;99.90;;;;;;5084881;28;20404;-65
2023/01/01 11:50:15;;;;;;;12.27;2.25;;;12.80;99.90;;;;;;5074851;28;20048;-65
2023/01/01 11:52:45;;;;;;;14.27;2.40;;;12.80;99.90;;;;;;5087060;28;20063;-63
2023/01/01 11:55:23;;;;;;;14.32;2.47;;;12.80;99.90;;;;;;5085347;28;20064;-64
2023/01/01 11:58:15;;;;;;;11.13;1.90;;;12.60;99.90;;;;;;5082908;28;20048;-64
2023/01/01 12:00:40;;;;;;;12.50;2.72;;;12.80;99.90;;;;;;5052229;28;20057;-65
2023/01/01 12:03:21;;;;;;;14.50;4.28;;;12.70;99.90;;;;;;5085288;28;20462;-65
2023/01/01 12:06:01;;;;;;;10.55;2.50;;;12.60;99.90;;;;;;5084255;28;20082;-65
2023/01/01 12:08:35;;;;;;;8.38;1.80;;;12.70;99.90;;;;;;5085427;28;20044;-65
2023/01/01 12:11:14;;;;;;;10.57;2.33;;;12.80;99.90;;;;;;5085295;28;20045;-66
2023/01/01 12:14:06;;;;;;;15.43;2.17;;;12.90;99.90;;;;;;5085539;28;20115;-64
2023/01/01 12:16:58;;;;;;;12.27;2.58;;;12.80;99.90;;;;;;5076624;28;20115;-66
2023/01/01 12:19:48;;;;;;;7.32;1.67;;;13.00;99.90;;;;;;5082812;28;20047;-64
2023/01/01 12:22:16;;;;;;;17.95;3.67;;;12.80;99.90;;;;;;5084769;28;20219;-64
2023/01/01 12:24:42;;;;;;;10.20;2.60;;;12.80;99.90;;;;;;5085218;28;20036;-65
2023/01/01 12:27:20;;;;;;;15.38;2.95;;;12.70;99.90;;;;;;5084698;28;20029;-65
2023/01/01 12:30:00;;;;;;;13.15;2.50;;;12.70;99.90;;;;;;5087815;28;20056;-65
2023/01/01 12:32:56;;;;;;;11.50;2.33;;;12.60;99.90;;;;;;5086534;28;20041;-64
2023/01/01 12:35:48;;;;;;;13.95;1.92;;;12.60;99.90;;;;;;5088902;28;20041;-64
2023/01/01 12:38:22;;;;;;;12.27;2.67;;;12.70;99.90;;;;;;5009252;28;20069;-64
2023/01/01 12:40:50;;;;;;;14.18;2.28;;;12.80;99.90;;;;;;5026000;28;20056;-65
2023/01/01 12:44:00;;;;;;;11.05;2.13;;;12.80;99.90;;;;;;5022844;28;20050;-64
2023/01/01 12:46:34;;;;;;;10.35;2.60;;;12.90;99.90;;;;;;4977120;28;20063;-64
2023/01/01 12:49:24;;;;;;;9.98;2.40;;;12.80;99.90;;;;;;4983423;28;20081;-64
2023/01/01 12:52:13;;;;;;;14.98;2.42;;;12.70;99.90;;;;;;4980655;28;20051;-64
2023/01/01 12:55:27;;;;;;;11.87;2.63;;;12.70;99.90;;;;;;4981934;28;20054;-64
2023/01/01 12:58:14;;;;;;;12.27;2.45;;;12.60;99.90;;;;;;4968549;28;20059;-65
2023/01/01 13:00:47;;;;;;;10.55;2.88;;;12.60;99.90;;;;;;4958853;28;20109;-65
2023/01/01 13:03:24;;;;;;;10.77;2.60;;;12.50;99.90;;;;;;4980502;28;20055;-64